Depesze METAR lotnisk w Polsce

METAR – format kodowanego raportu o pogodzie używany w meteorologii lotniczej i prognozie pogody. METAR jest akronimem od ang. Meteorological Aerodrome Report. Typowy METAR zawiera informację o temperaturze, ciśnieniu, temperaturze punktu rosy, sile i kierunku wiatru, opadzie, pokrywie chmur, wysokości podstawy chmur, widzialności, lecz może zawierać też inne informacje (np. stan dróg startowych).

Warszawa-Okęcie (EPWA)

METAR = EPWA 300700Z 30009KT 260V330 9999 BKN016 17/12 Q1020 NOSIG

STACJA......... EPWA - Warszawa-Okęcie (WAW)
POMIAR......... Tue Aug 30, 09:00 CEST
WIATR.......... zachodni północno-zachodni (WNW) z prędkością 17 km/h
WIDZIALNOŚĆ.... powyżej 10 kilometrów
CHMURY......... zachmurzenie średnie (5/8-7/8)
TEMPERATURA.... 17°C
T.PUNKTU ROSY.. 12°C
WILGOTNOŚĆ..... 73%
CIŚNIENIE...... 1020 hPa
PROGNOZA....... bez nagłych zmian w ciągu 2h

Sprawdź też: Prognoza pogody Warszawa

Warszawa-Modlin (EPMO)

METAR = EPMO 300630Z 30010KT 9999 FEW015 16/12 Q1020 =

STACJA......... EPMO - Warszawa-Modlin (WMI)
POMIAR......... Tue Aug 30, 08:30 CEST
WIATR.......... zachodni północno-zachodni (WNW) z prędkością 19 km/h
WIDZIALNOŚĆ.... powyżej 10 kilometrów
CHMURY......... zachmurzenie niewielkie (1/8-2/8)
TEMPERATURA.... 16°C
T.PUNKTU ROSY.. 12°C
WILGOTNOŚĆ..... 77%
CIŚNIENIE...... 1020 hPa

Sprawdź też: Prognoza pogody Nowy Dwór Mazowiecki

Kraków-Balice (EPKK)

METAR = EPKK 300700Z 24005KT 9999 SCT050 17/14 Q1023

STACJA......... EPKK - Kraków-Balice (KRK)
POMIAR......... Tue Aug 30, 09:00 CEST
WIATR.......... zachodni południowo-zachodni (WSW) z prędkością 9 km/h
WIDZIALNOŚĆ.... powyżej 10 kilometrów
CHMURY......... zachmurzenie małe (3/8-4/8)
TEMPERATURA.... 17°C
T.PUNKTU ROSY.. 14°C
WILGOTNOŚĆ..... 83%
CIŚNIENIE...... 1023 hPa

Sprawdź też: Prognoza pogody Kraków

Łódź-Lublinek (EPLL)

METAR = EPLL 300700Z 26008KT 240V300 9999 SCT016 16/12 Q1022

STACJA......... EPLL - Łódź-Lublinek (LCJ)
POMIAR......... Tue Aug 30, 09:00 CEST
WIATR.......... zachodni (W) z prędkością 15 km/h
WIDZIALNOŚĆ.... powyżej 10 kilometrów
CHMURY......... zachmurzenie małe (3/8-4/8)
TEMPERATURA.... 16°C
T.PUNKTU ROSY.. 12°C
WILGOTNOŚĆ..... 77%
CIŚNIENIE...... 1022 hPa

Sprawdź też: Prognoza pogody Łódź

Wrocław-Strachowice (EPWR)

METAR = EPWR 300700Z 30012KT 9999 FEW016 17/12 Q1024

STACJA......... EPWR - Wrocław-Strachowice (WRO)
POMIAR......... Tue Aug 30, 09:00 CEST
WIATR.......... zachodni północno-zachodni (WNW) z prędkością 22 km/h
WIDZIALNOŚĆ.... powyżej 10 kilometrów
CHMURY......... zachmurzenie niewielkie (1/8-2/8)
TEMPERATURA.... 17°C
T.PUNKTU ROSY.. 12°C
WILGOTNOŚĆ..... 73%
CIŚNIENIE...... 1024 hPa

Sprawdź też: Prognoza pogody Wrocław

Katowice-Pyrzowice (EPKT)

METAR = EPKT 300700Z 31008KT 290V350 9999 FEW018 17/12 Q1023

STACJA......... EPKT - Katowice-Pyrzowice (KTW)
POMIAR......... Tue Aug 30, 09:00 CEST
WIATR.......... północno zachodni (NW) z prędkością 15 km/h
WIDZIALNOŚĆ.... powyżej 10 kilometrów
CHMURY......... zachmurzenie niewielkie (1/8-2/8)
TEMPERATURA.... 17°C
T.PUNKTU ROSY.. 12°C
WILGOTNOŚĆ..... 73%
CIŚNIENIE...... 1023 hPa

Sprawdź też: Prognoza pogody Katowice

Gdańsk (EPGD)

METAR = EPGD 300700Z 28013KT 9999 BKN016 16/12 Q1019

STACJA......... EPGD - Gdańsk im. Lecha Wałęsy (GDN)
POMIAR......... Tue Aug 30, 09:00 CEST
WIATR.......... zachodni (W) z prędkością 24 km/h
WIDZIALNOŚĆ.... powyżej 10 kilometrów
CHMURY......... zachmurzenie średnie (5/8-7/8)
TEMPERATURA.... 16°C
T.PUNKTU ROSY.. 12°C
WILGOTNOŚĆ..... 77%
CIŚNIENIE...... 1019 hPa

Sprawdź też: Prognoza pogody Gdańsk

Poznań-Ławica (EPPO)

METAR = EPPO 300700Z 30013KT 9999 FEW014 16/11 Q1023

STACJA......... EPPO - Poznań-Ławica (POZ)
POMIAR......... Tue Aug 30, 09:00 CEST
WIATR.......... zachodni północno-zachodni (WNW) z prędkością 24 km/h
WIDZIALNOŚĆ.... powyżej 10 kilometrów
CHMURY......... zachmurzenie niewielkie (1/8-2/8)
TEMPERATURA.... 16°C
T.PUNKTU ROSY.. 11°C
WILGOTNOŚĆ..... 72%
CIŚNIENIE...... 1023 hPa

Sprawdź też: Prognoza pogody Poznań

Rzeszów-Jasionka (EPRZ)

METAR = EPRZ 300700Z 35008KT 320V030 9999 BKN035 17/13 Q1021

STACJA......... EPRZ - Rzeszów-Jasionka (RZE)
POMIAR......... Tue Aug 30, 09:00 CEST
WIATR.......... północny (N) z prędkością 15 km/h
WIDZIALNOŚĆ.... powyżej 10 kilometrów
CHMURY......... zachmurzenie średnie (5/8-7/8)
TEMPERATURA.... 17°C
T.PUNKTU ROSY.. 13°C
WILGOTNOŚĆ..... 77%
CIŚNIENIE...... 1021 hPa

Sprawdź też: Prognoza pogody Rzeszów

Szczecin-Goleniów (EPSC)

METAR = EPSC 300700Z 27009KT 9999 SCT013 SCT018 14/12 Q1023

STACJA......... EPSC - Szczecin-Goleniów (SZZ)
POMIAR......... Tue Aug 30, 09:00 CEST
WIATR.......... zachodni (W) z prędkością 17 km/h
WIDZIALNOŚĆ.... powyżej 10 kilometrów
CHMURY......... zachmurzenie małe (3/8-4/8)
TEMPERATURA.... 14°C
T.PUNKTU ROSY.. 12°C
WILGOTNOŚĆ..... 88%
CIŚNIENIE...... 1023 hPa

Sprawdź też: Prognoza pogody Szczecin

Lublin-Świdnik (EPLB)

METAR = EPLB 300630Z 31010KT CAVOK 17/13 Q1020 =

STACJA......... EPLB - Lublin-Świdnik (LUZ)
POMIAR......... Tue Aug 30, 08:30 CEST
WIATR.......... północno zachodni (NW) z prędkością 19 km/h
WIDZIALNOŚĆ.... powyżej 10 kilometrów
CHMURY......... bezchmurne niebo
TEMPERATURA.... 17°C
T.PUNKTU ROSY.. 13°C
WILGOTNOŚĆ..... 77%
CIŚNIENIE...... 1020 hPa

Sprawdź też: Prognoza pogody Lublin

Bydgoszcz-Szwederowo (EPBY)

METAR = EPBY 300630Z 28010KT CAVOK 15/12 Q1021 =

STACJA......... EPBY - Bydgoszcz-Szwederowo (BZG)
POMIAR......... Tue Aug 30, 08:30 CEST
WIATR.......... zachodni (W) z prędkością 19 km/h
WIDZIALNOŚĆ.... powyżej 10 kilometrów
CHMURY......... bezchmurne niebo
TEMPERATURA.... 15°C
T.PUNKTU ROSY.. 12°C
WILGOTNOŚĆ..... 82%
CIŚNIENIE...... 1021 hPa

Sprawdź też: Prognoza pogody Bydgoszcz

Zielona Góra-Babimost (EPZG)

METAR = EPZG 300630Z 28007KT 250V320 CAVOK 15/12 Q1024 =

STACJA......... EPZG - Zielona Góra-Babimost (IEG)
POMIAR......... Tue Aug 30, 08:30 CEST
WIATR.......... zachodni (W) z prędkością 13 km/h
WIDZIALNOŚĆ.... powyżej 10 kilometrów
CHMURY......... bezchmurne niebo
TEMPERATURA.... 15°C
T.PUNKTU ROSY.. 12°C
WILGOTNOŚĆ..... 82%
CIŚNIENIE...... 1024 hPa

Sprawdź też: Prognoza pogody Zielona Góra

Szymany Olsztyn-Mazury (EPSY)

METAR = EPSY 300630Z 28008KT 240V330 9999 FEW019 17/12 Q1018=

STACJA......... EPSY - Olsztyn-Mazury (SZY)
POMIAR......... Tue Aug 30, 08:30 CEST
WIATR.......... zachodni (W) z prędkością 15 km/h
WIDZIALNOŚĆ.... powyżej 10 kilometrów
CHMURY......... zachmurzenie niewielkie (1/8-2/8)
TEMPERATURA.... 17°C
T.PUNKTU ROSY.. 12°C
WILGOTNOŚĆ..... 73%
CIŚNIENIE...... 1018 hPa

Sprawdź też: Prognoza pogody Olsztyn